Time;durP1;ratioP1;P1;durP2;ratioP2;P2;SDS_P1;SDS_P2;PMS_P1;PMS_P2;Temp;Humidity;BMP_temperature;BMP_pressure;BME280_temperature;BME280_humidity;BME280_pressure;Samples;Min_cycle;Max_cycle;Signal;HPM_P1;HPM_P2
2022/06/28 00:01:45;;;;;;;6.60;4.17;;;;;;;18.77;73.68;100944.89;1792374;80;20877;-87
2022/06/28 00:04:12;;;;;;;6.53;4.03;;;;;;;18.70;73.79;100947.72;1792090;80;21006;-86
2022/06/28 00:06:39;;;;;;;9.10;4.58;;;;;;;18.64;73.96;100948.63;1752066;82;20945;-87
2022/06/28 00:09:05;;;;;;;7.10;4.47;;;;;;;18.59;74.38;100948.70;1789612;80;20922;-88
2022/06/28 00:11:32;;;;;;;5.05;4.47;;;;;;;18.54;74.78;100949.57;1789836;79;21115;-88
2022/06/28 00:13:59;;;;;;;7.65;5.12;;;;;;;18.49;75.04;100945.16;1789873;80;20986;-88
2022/06/28 00:16:25;;;;;;;6.67;4.70;;;;;;;18.44;75.28;100942.91;1789631;80;20907;-88
2022/06/28 00:18:52;;;;;;;6.87;4.80;;;;;;;18.40;75.35;100937.02;1789848;80;20943;-87
2022/06/28 00:21:19;;;;;;;5.60;3.70;;;;;;;18.37;75.40;100937.80;1790242;79;20938;-88
2022/06/28 00:23:48;;;;;;;7.92;4.30;;;;;;;18.32;75.44;100934.69;1789456;80;21239;-87
2022/06/28 00:26:13;;;;;;;6.33;4.62;;;;;;;18.28;75.41;100940.77;1751778;82;20822;-87
2022/06/28 00:28:40;;;;;;;6.42;4.00;;;;;;;18.25;75.40;100940.19;1789418;79;20947;-87
2022/06/28 00:31:06;;;;;;;7.83;4.80;;;;;;;18.22;75.66;100946.11;1789635;79;20899;-88
2022/06/28 00:33:34;;;;;;;7.87;4.12;;;;;;;18.18;75.74;100938.55;1789609;80;20911;-87
2022/06/28 00:36:00;;;;;;;5.12;3.92;;;;;;;18.15;75.87;100939.66;1789720;80;21212;-87
2022/06/28 00:38:28;;;;;;;6.92;4.60;;;;;;;18.12;76.00;100941.27;1789453;79;21026;-86
2022/06/28 00:40:56;;;;;;;8.00;4.20;;;;;;;18.11;76.16;100947.53;1789560;79;20869;-87
2022/06/28 00:43:24;;;;;;;6.97;4.40;;;;;;;18.08;76.12;100947.81;1789519;80;20927;-86
2022/06/28 00:45:51;;;;;;;6.03;4.83;;;;;;;18.04;76.17;100942.41;1751960;81;21402;-86
2022/06/28 00:48:18;;;;;;;6.53;4.20;;;;;;;18.00;76.23;100945.80;1751966;82;21126;-87
2022/06/28 00:50:45;;;;;;;7.62;4.75;;;;;;;17.96;76.31;100948.86;1789757;79;20887;-87
2022/06/28 00:53:15;;;;;;;6.47;3.72;;;;;;;17.91;76.47;100952.41;1789831;80;20868;-87
2022/06/28 00:55:44;;;;;;;6.25;3.80;;;;;;;17.87;76.70;100957.12;1752010;81;20949;-88
2022/06/28 00:58:13;;;;;;;9.55;5.03;;;;;;;17.84;76.71;100953.91;1789703;80;21022;-87
2022/06/28 01:00:44;;;;;;;10.68;4.58;;;;;;;17.80;76.83;100952.79;1759625;80;21902;-86
2022/06/28 01:03:16;;;;;;;5.92;4.42;;;;;;;17.77;76.92;100954.88;1789334;79;21401;-87
2022/06/28 01:05:44;;;;;;;8.53;4.28;;;;;;;17.75;77.07;100958.98;1751946;81;21399;-85
2022/06/28 01:08:13;;;;;;;7.70;4.30;;;;;;;17.74;77.14;100959.97;1751881;81;20960;-87
2022/06/28 01:10:40;;;;;;;8.70;4.75;;;;;;;17.72;77.22;100957.06;1789527;80;20935;-86
2022/06/28 01:13:07;;;;;;;7.70;4.22;;;;;;;17.70;77.46;100955.05;1722682;82;21233;-86
2022/06/28 01:15:34;;;;;;;7.17;4.03;;;;;;;17.70;77.32;100949.75;1789436;79;20872;-86
2022/06/28 01:18:04;;;;;;;5.87;4.58;;;;;;;17.67;77.11;100955.30;1789625;79;20959;-86
2022/06/28 01:20:42;;;;;;;5.58;4.22;;;;;;;17.63;76.96;100954.73;1750891;81;20976;-86
2022/06/28 01:23:22;;;;;;;8.98;4.00;;;;;;;17.58;77.08;100959.06;1752123;81;20936;-86
2022/06/28 01:25:51;;;;;;;5.95;4.33;;;;;;;17.54;77.35;100953.69;1751418;82;21122;-87
2022/06/28 01:28:19;;;;;;;4.40;4.00;;;;;;;17.50;77.49;100955.41;1789401;80;20931;-86
2022/06/28 01:30:48;;;;;;;4.65;4.15;;;;;;;17.46;77.75;100952.16;1789732;79;21315;-87
2022/06/28 01:33:16;;;;;;;5.33;4.83;;;;;;;17.43;78.02;100949.78;1751158;80;20956;-86
2022/06/28 01:35:43;;;;;;;5.30;4.42;;;;;;;17.41;78.25;100951.71;1752126;81;20901;-86
2022/06/28 01:38:10;;;;;;;4.20;3.80;;;;;;;17.37;78.23;100952.94;1752112;81;21115;-86
2022/06/28 01:40:36;;;;;;;4.70;4.28;;;;;;;17.34;78.26;100950.06;1789664;79;21384;-87
2022/06/28 01:43:03;;;;;;;7.70;4.70;;;;;;;17.33;78.25;100959.45;1752186;81;20992;-87
2022/06/28 01:45:32;;;;;;;5.97;4.60;;;;;;;17.30;78.20;100949.95;1723810;82;21015;-86
2022/06/28 01:47:59;;;;;;;6.85;4.42;;;;;;;17.28;78.28;100947.91;1752221;80;20992;-86
2022/06/28 01:50:41;;;;;;;5.83;4.53;;;;;;;17.27;78.36;100949.36;1786272;80;21961;-86
2022/06/28 01:53:08;;;;;;;5.67;4.35;;;;;;;17.24;78.25;100954.43;1752017;80;21012;-86
2022/06/28 01:55:40;;;;;;;6.45;5.83;;;;;;;17.22;78.01;100954.20;1750996;81;20940;-86
2022/06/28 01:58:09;;;;;;;10.98;8.45;;;;;;;17.18;77.92;100948.30;1751523;81;21004;-87
2022/06/28 02:00:37;;;;;;;10.60;9.10;;;;;;;17.15;78.07;100945.92;1752728;81;21022;-86
2022/06/28 02:03:04;;;;;;;7.45;5.92;;;;;;;17.12;78.29;100953.64;1790073;80;21329;-87
2022/06/28 02:05:49;;;;;;;5.78;4.58;;;;;;;17.10;78.59;100956.06;1789843;79;20963;-87
2022/06/28 02:08:17;;;;;;;5.47;4.55;;;;;;;17.06;78.74;100947.52;1724366;80;21015;-87
2022/06/28 02:10:46;;;;;;;5.62;4.90;;;;;;;17.02;79.25;100961.98;1729422;81;20952;-86
2022/06/28 02:13:13;;;;;;;7.17;5.17;;;;;;;17.02;79.25;100961.98;1757512;81;20909;-87
2022/06/28 02:15:40;;;;;;;7.17;4.75;;;;;;;17.01;79.27;100951.50;1758135;81;21069;-87
2022/06/28 02:18:07;;;;;;;6.70;4.85;;;;;;;16.98;79.25;100953.45;1757586;81;20886;-86
2022/06/28 02:20:34;;;;;;;7.35;5.10;;;;;;;16.98;79.13;100954.78;1757725;81;20904;-86
2022/06/28 02:23:00;;;;;;;6.40;5.70;;;;;;;16.97;79.05;100958.87;1758452;81;20959;-87
2022/06/28 02:25:28;;;;;;;5.42;4.80;;;;;;;16.94;78.98;100948.05;1759960;80;20957;-86
2022/06/28 02:27:57;;;;;;;6.42;5.47;;;;;;;16.93;78.81;100952.14;1758682;80;21273;-85
2022/06/28 02:30:23;;;;;;;8.43;4.95;;;;;;;16.92;78.88;100954.44;1757799;80;21430;-86
2022/06/28 02:32:50;;;;;;;7.42;5.15;;;;;;;16.89;78.97;100959.97;1757676;80;21070;-86
2022/06/28 02:40:47;;;;;;;8.15;4.87;;;;;;;16.85;79.38;100957.20;1758446;81;21401;-84
2022/06/28 02:43:14;;;;;;;6.08;4.35;;;;;;;16.84;79.39;100959.02;1758954;80;21191;-85
2022/06/28 02:45:42;;;;;;;4.85;3.92;;;;;;;16.84;79.36;100955.05;1758873;81;20964;-84
2022/06/28 02:48:09;;;;;;;8.25;4.87;;;;;;;16.83;79.36;100949.86;1758313;81;21449;-85
2022/06/28 02:50:35;;;;;;;8.10;4.53;;;;;;;16.85;79.25;100954.55;1759134;80;20912;-85
2022/06/28 02:53:03;;;;;;;6.30;5.12;;;;;;;16.86;79.14;100958.91;1760081;79;21107;-86
2022/06/28 02:55:30;;;;;;;5.28;4.78;;;;;;;16.87;79.13;100969.36;1759945;79;20945;-85
2022/06/28 02:57:56;;;;;;;5.53;4.78;;;;;;;16.88;78.96;100964.43;1760054;81;21092;-86
2022/06/28 03:00:23;;;;;;;7.40;5.12;;;;;;;16.91;78.96;100964.66;1759369;80;20959;-85
2022/06/28 03:02:50;;;;;;;13.72;6.10;;;;;;;16.92;79.06;100961.89;1730647;81;20999;-86
2022/06/28 03:05:20;;;;;;;6.37;4.97;;;;;;;16.95;78.97;100962.13;1757991;80;21800;-86
2022/06/28 03:07:48;;;;;;;9.45;5.28;;;;;;;16.98;79.15;100964.52;1757619;80;20999;-86
2022/06/28 03:10:18;;;;;;;7.67;5.35;;;;;;;17.03;79.01;100968.11;1744247;81;21833;-87
2022/06/28 03:12:44;;;;;;;8.80;5.95;;;;;;;17.10;79.35;100964.85;1732751;83;21014;-85
2022/06/28 03:15:11;;;;;;;7.87;5.20;;;;;;;17.10;79.35;100964.85;1731423;82;20967;-86
2022/06/28 03:17:38;;;;;;;5.65;4.58;;;;;;;17.16;78.96;100964.81;1732337;83;21103;-86
2022/06/28 03:20:06;;;;;;;8.43;4.83;;;;;;;17.20;79.01;100970.22;1732406;83;20929;-86
2022/06/28 03:22:32;;;;;;;13.22;9.75;;;;;;;17.24;79.04;100973.47;1719026;83;20927;-85
2022/06/28 03:24:59;;;;;;;6.67;5.55;;;;;;;17.29;78.55;100978.73;1705464;83;20983;-86
2022/06/28 03:27:26;;;;;;;6.20;4.80;;;;;;;17.35;78.70;100978.73;1732297;83;20942;-87
2022/06/28 03:29:53;;;;;;;10.28;7.40;;;;;;;17.43;78.76;100979.41;1705208;83;21365;-86
2022/06/28 03:32:24;;;;;;;26.60;23.95;;;;;;;17.52;79.11;100981.28;1731687;83;21402;-87
2022/06/28 03:34:51;;;;;;;17.37;15.55;;;;;;;17.58;79.37;100973.66;1705630;83;21432;-86
2022/06/28 03:37:19;;;;;;;13.28;8.05;;;;;;;17.67;79.36;100978.67;1732270;83;21578;-86
2022/06/28 03:39:47;;;;;;;11.43;7.12;;;;;;;17.75;79.41;100970.92;1732282;81;20887;-86
2022/06/28 03:42:14;;;;;;;10.00;6.75;;;;;;;17.84;79.54;100964.52;1732523;83;21163;-86
2022/06/28 03:44:42;;;;;;;7.95;6.40;;;;;;;17.93;79.74;100959.25;1719019;83;20872;-86
2022/06/28 03:47:09;;;;;;;14.00;6.45;;;;;;;18.04;79.82;100952.20;1732515;81;20978;-86
2022/06/28 03:49:54;;;;;;;11.57;6.97;;;;;;;18.13;79.83;100948.74;1732351;83;20970;-86
2022/06/28 03:52:28;;;;;;;13.22;6.67;;;;;;;18.24;79.56;100955.28;1711763;83;20859;-86
2022/06/28 03:55:14;;;;;;;14.30;7.00;;;;;;;18.34;79.47;100959.30;1683358;83;21138;-86
2022/06/28 03:57:43;;;;;;;12.90;7.17;;;;;;;18.46;78.70;100966.20;1659842;85;20892;-86
2022/06/28 04:00:13;;;;;;;11.35;6.60;;;;;;;18.59;78.23;100961.98;1721227;83;21528;-85
2022/06/28 04:02:40;;;;;;;8.33;6.58;;;;;;;18.71;77.79;100962.70;1720995;83;21476;-85
2022/06/28 04:05:09;;;;;;;11.25;6.42;;;;;;;18.82;77.56;100962.11;1721218;83;20999;-86
2022/06/28 04:07:36;;;;;;;11.25;6.83;;;;;;;18.95;77.22;100965.02;1721036;83;21138;-85
2022/06/28 04:10:04;;;;;;;19.00;7.42;;;;;;;19.10;76.94;100968.95;1719917;82;20933;-85
2022/06/28 04:12:31;;;;;;;11.38;6.33;;;;;;;19.25;76.14;100964.03;1712045;83;21030;-86
2022/06/28 04:15:00;;;;;;;9.73;6.80;;;;;;;19.52;75.22;100971.80;1712087;83;20979;-86
2022/06/28 04:17:26;;;;;;;10.75;7.33;;;;;;;20.01;73.67;100972.09;1712247;83;21378;-86
2022/06/28 04:20:12;;;;;;;11.75;7.17;;;;;;;20.66;72.51;100973.45;1712183;83;21169;-87
2022/06/28 04:22:41;;;;;;;14.28;6.70;;;;;;;21.42;68.55;100974.89;1711875;83;20924;-87
2022/06/28 04:25:08;;;;;;;10.63;7.55;;;;;;;22.10;65.72;100971.53;1711921;83;21561;-87
2022/06/28 04:27:37;;;;;;;17.50;7.80;;;;;;;22.73;63.45;100974.81;1716448;81;20884;-86
2022/06/28 04:30:06;;;;;;;11.73;7.15;;;;;;;23.35;61.39;100975.28;1723057;83;20916;-86
2022/06/28 04:32:37;;;;;;;15.48;6.90;;;;;;;23.94;58.83;100966.20;1696959;83;21230;-86
2022/06/28 04:35:06;;;;;;;8.13;6.35;;;;;;;24.50;56.79;100966.20;1723084;83;20896;-87
2022/06/28 04:37:33;;;;;;;12.30;6.47;;;;;;;24.98;54.66;100962.91;1681721;84;20936;-86
2022/06/28 04:40:03;;;;;;;13.50;6.70;;;;;;;25.47;53.60;100967.11;1723277;82;20955;-87
2022/06/28 04:42:31;;;;;;;9.58;6.03;;;;;;;25.97;52.86;100964.30;1696732;83;20968;-87
2022/06/28 04:44:58;;;;;;;10.10;5.87;;;;;;;26.42;50.68;100959.21;1723030;83;21111;-87
2022/06/28 04:47:27;;;;;;;7.50;6.10;;;;;;;26.81;49.10;100963.92;1696918;83;20904;-85
2022/06/28 04:49:54;;;;;;;9.75;5.35;;;;;;;27.11;48.18;100965.17;1696468;83;20899;-86
2022/06/28 04:52:20;;;;;;;15.25;5.97;;;;;;;27.46;47.53;100964.80;1697769;83;20968;-85
2022/06/28 04:54:49;;;;;;;12.28;6.85;;;;;;;27.85;45.85;100956.70;1722675;83;21037;-87
2022/06/28 04:57:15;;;;;;;14.95;5.35;;;;;;;28.17;44.52;100957.94;1697560;83;21124;-87
2022/06/28 04:59:44;;;;;;;8.75;5.97;;;;;;;28.44;43.78;100956.19;1722792;82;21028;-90
2022/06/28 05:02:12;;;;;;;10.40;5.85;;;;;;;28.75;43.64;100963.45;1696458;84;20936;-88
2022/06/28 05:04:39;;;;;;;13.83;7.50;;;;;;;29.06;42.81;100961.55;1723140;83;20935;-88
2022/06/28 05:07:07;;;;;;;12.35;5.10;;;;;;;29.40;42.08;100958.41;1696926;84;20868;-87
2022/06/28 05:09:34;;;;;;;11.00;5.50;;;;;;;29.66;40.97;100958.87;1722996;82;21397;-86
2022/06/28 05:12:02;;;;;;;8.63;5.05;;;;;;;29.88;40.80;100958.14;1681494;84;21039;-88
2022/06/28 05:14:30;;;;;;;6.53;5.47;;;;;;;30.06;40.11;100966.94;1722811;83;20962;-88
2022/06/28 05:16:57;;;;;;;5.72;5.15;;;;;;;30.31;39.20;100963.88;1697634;84;20956;-88
2022/06/28 05:19:25;;;;;;;7.50;5.03;;;;;;;30.51;38.23;100961.63;1723537;83;20923;-88
2022/06/28 05:24:30;;;;;;;9.88;4.40;;;;;;;30.81;37.84;100959.14;1884923;75;22406;-87
2022/06/28 05:27:02;;;;;;;7.17;4.87;;;;;;;30.98;37.72;100969.80;1860691;76;20962;-88
2022/06/28 05:29:31;;;;;;;8.20;4.22;;;;;;;31.29;36.25;100969.48;1861671;77;21146;-88
2022/06/28 05:31:58;;;;;;;10.85;4.90;;;;;;;31.57;36.10;100958.73;1861681;77;20851;-87
2022/06/28 05:34:25;;;;;;;8.75;4.42;;;;;;;31.89;35.40;100961.36;1861417;77;20923;-88
2022/06/28 05:36:51;;;;;;;8.70;4.53;;;;;;;32.25;35.15;100959.19;1861426;76;21404;-88
2022/06/28 05:39:18;;;;;;;6.92;4.72;;;;;;;32.56;34.31;100958.19;1861776;77;20868;-89
2022/06/28 05:41:49;;;;;;;8.00;4.62;;;;;;;32.78;33.29;100953.08;1861805;77;21087;-90
2022/06/28 05:44:17;;;;;;;6.67;3.80;;;;;;;32.94;32.98;100951.58;1861439;77;20849;-89
2022/06/28 05:46:44;;;;;;;7.20;4.22;;;;;;;33.12;32.25;100947.16;1861755;77;21435;-89
2022/06/28 05:49:11;;;;;;;5.62;4.00;;;;;;;33.34;31.58;100941.98;1861524;76;20890;-89
2022/06/28 05:51:39;;;;;;;7.20;4.15;;;;;;;33.55;31.23;100939.20;1862351;76;21283;-88
2022/06/28 05:54:07;;;;;;;8.43;3.70;;;;;;;33.75;31.19;100941.58;1864244;77;21254;-88
2022/06/28 05:56:36;;;;;;;4.97;3.55;;;;;;;33.96;30.31;100941.51;1864180;77;20875;-88
2022/06/28 05:59:04;;;;;;;8.68;3.80;;;;;;;34.22;29.65;100946.98;1833192;77;20934;-89
2022/06/28 06:01:32;;;;;;;6.78;3.60;;;;;;;34.39;29.16;100932.87;1864427;77;20879;-89
2022/06/28 06:04:00;;;;;;;6.67;3.12;;;;;;;34.63;29.06;100930.91;1863094;76;20950;-89
2022/06/28 06:06:26;;;;;;;10.15;4.10;;;;;;;34.85;28.25;100932.39;1861635;77;21097;-89
2022/06/28 06:08:55;;;;;;;7.78;3.37;;;;;;;35.05;28.61;100929.72;1861371;76;20962;-90
2022/06/28 06:11:22;;;;;;;14.28;4.55;;;;;;;35.27;28.28;100927.92;1861827;77;20902;-89
2022/06/28 06:13:50;;;;;;;9.95;5.80;;;;;;;35.54;28.18;100932.68;1861883;76;20902;-89
2022/06/28 06:16:16;;;;;;;6.50;3.83;;;;;;;35.65;27.60;100933.69;1861813;77;20899;-90
2022/06/28 06:18:45;;;;;;;7.25;3.27;;;;;;;35.54;27.51;100927.77;1861514;77;21159;-87
2022/06/28 06:21:11;;;;;;;6.40;3.27;;;;;;;35.55;27.27;100932.95;1861473;77;20836;-89
2022/06/28 06:23:40;;;;;;;7.75;2.72;;;;;;;35.63;27.37;100928.47;1860562;76;20859;-89
2022/06/28 06:26:09;;;;;;;7.25;3.50;;;;;;;35.78;27.13;100931.14;1783521;77;20919;-90
2022/06/28 06:28:37;;;;;;;10.43;3.65;;;;;;;35.99;27.17;100928.94;1861837;76;21369;-89
2022/06/28 06:31:03;;;;;;;7.33;3.42;;;;;;;36.14;27.15;100932.44;1861449;76;21286;-90
2022/06/28 06:33:36;;;;;;;11.65;3.58;;;;;;;36.32;26.67;100925.80;1789296;76;20910;-90
2022/06/28 06:36:07;;;;;;;11.55;8.65;;;;;;;36.56;26.67;100915.95;1818975;77;20911;-90
2022/06/28 06:38:35;;;;;;;11.28;7.10;;;;;;;36.66;25.56;100918.80;1860735;77;20962;-90
2022/06/28 06:41:02;;;;;;;12.20;11.00;;;;;;;36.44;25.69;100919.67;1860651;76;20982;-91
2022/06/28 06:43:29;;;;;;;10.03;4.25;;;;;;;36.39;26.11;100918.23;1860541;77;22080;-90
2022/06/28 06:45:58;;;;;;;3.58;2.83;;;;;;;36.37;26.11;100923.67;1840746;77;20906;-90
2022/06/28 06:48:25;;;;;;;8.08;5.47;;;;;;;36.50;25.58;100925.44;1860880;77;20907;-91
2022/06/28 06:50:53;;;;;;;4.55;3.22;;;;;;;36.66;25.34;100926.48;1860837;76;20891;-89
2022/06/28 06:53:20;;;;;;;8.48;3.67;;;;;;;36.78;25.00;100929.03;1860653;77;20879;-91
2022/06/28 06:55:48;;;;;;;6.60;3.15;;;;;;;36.89;24.85;100923.94;1860562;76;21059;-90
2022/06/28 06:58:15;;;;;;;18.07;3.65;;;;;;;37.02;24.30;100921.31;1860771;77;20847;-90
2022/06/28 07:00:41;;;;;;;8.13;3.17;;;;;;;37.22;24.40;100925.30;1860620;76;20844;-91
2022/06/28 07:03:09;;;;;;;5.08;2.67;;;;;;;37.40;24.40;100926.27;1860703;76;21365;-88
2022/06/28 07:05:39;;;;;;;4.50;2.52;;;;;;;37.67;24.19;100929.45;1860430;76;21369;-89
2022/06/28 07:08:06;;;;;;;6.30;2.42;;;;;;;37.84;23.42;100925.14;1860566;76;21227;-90
2022/06/28 07:10:36;;;;;;;3.58;2.10;;;;;;;37.99;22.86;100929.87;1859719;77;20947;-90
2022/06/28 07:13:04;;;;;;;5.20;2.05;;;;;;;38.13;23.07;100922.29;1860461;76;20958;-87
2022/06/28 07:15:31;;;;;;;6.33;2.17;;;;;;;38.26;22.93;100928.34;1860331;77;20883;-88
2022/06/28 07:17:58;;;;;;;3.70;1.72;;;;;;;38.40;22.49;100931.38;1860781;76;21327;-89
2022/06/28 07:20:25;;;;;;;3.72;2.22;;;;;;;38.53;22.16;100935.84;1860820;77;21124;-89
2022/06/28 07:22:52;;;;;;;2.72;1.72;;;;;;;38.65;21.40;100933.39;1859834;76;21384;-90
2022/06/28 07:25:20;;;;;;;3.40;1.55;;;;;;;38.76;21.71;100932.30;1850156;77;20874;-89
2022/06/28 07:27:46;;;;;;;4.70;3.15;;;;;;;38.88;21.76;100930.09;1850056;76;20944;-88
2022/06/28 07:30:13;;;;;;;5.87;3.52;;;;;;;38.96;21.70;100927.40;1849786;77;20964;-90
2022/06/28 07:32:40;;;;;;;5.03;1.45;;;;;;;39.04;21.52;100921.34;1849989;77;21109;-89
2022/06/28 07:35:08;;;;;;;5.37;4.55;;;;;;;39.15;21.22;100923.52;1850130;77;20869;-89
2022/06/28 07:37:37;;;;;;;6.25;2.05;;;;;;;39.17;20.77;100913.91;1850315;77;20925;-88
2022/06/28 07:40:08;;;;;;;8.65;4.08;;;;;;;39.00;21.05;100916.68;1824707;77;20905;-89
2022/06/28 07:42:43;;;;;;;6.67;3.22;;;;;;;38.98;20.97;100916.98;1851665;77;21011;-90
2022/06/28 07:45:17;;;;;;;4.15;1.40;;;;;;;39.08;21.27;100921.63;1847644;77;21111;-88
2022/06/28 07:47:47;;;;;;;3.42;1.65;;;;;;;39.17;20.69;100919.41;1849659;77;21418;-88
2022/06/28 07:53:02;;;;;;;3.25;1.47;;;;;;;39.40;20.86;100918.59;1850082;77;20913;-90
2022/06/28 07:55:33;;;;;;;17.35;15.88;;;;;;;39.55;20.31;100919.08;1848974;77;20988;-90
2022/06/28 07:58:01;;;;;;;5.65;1.42;;;;;;;39.57;19.64;100911.39;1849819;76;21119;-89
2022/06/28 08:00:29;;;;;;;3.12;1.87;;;;;;;39.58;19.67;100915.80;1850669;77;20932;-90
2022/06/28 08:03:09;;;;;;;3.67;0.78;;;;;;;39.67;19.31;100913.30;1770667;81;20847;-90
2022/06/28 08:05:37;;;;;;;4.70;1.00;;;;;;;39.76;19.52;100912.98;1770567;81;20957;-89
2022/06/28 08:08:04;;;;;;;6.15;1.17;;;;;;;39.84;19.57;100909.66;1770743;81;21058;-89
2022/06/28 08:10:35;;;;;;;1.25;1.10;;;;;;;39.91;19.54;100907.45;1768714;81;21534;-90
2022/06/28 08:13:03;;;;;;;3.50;1.25;;;;;;;39.93;19.37;100905.78;1772112;81;20890;-89
2022/06/28 08:15:34;;;;;;;2.55;0.88;;;;;;;39.99;18.85;100900.54;1747060;81;20886;-89
2022/06/28 08:18:01;;;;;;;6.75;1.95;;;;;;;40.03;18.42;100903.00;1772984;80;21079;-89
2022/06/28 08:20:31;;;;;;;1.75;0.65;;;;;;;40.09;17.55;100899.66;1772441;80;20957;-88
2022/06/28 08:22:58;;;;;;;1.67;0.90;;;;;;;40.14;17.18;100894.15;1771067;80;21206;-88
2022/06/28 08:25:25;;;;;;;3.22;1.32;;;;;;;40.17;17.68;100894.38;1787430;79;21068;-88
2022/06/28 08:27:55;;;;;;;1.40;0.68;;;;;;;40.23;17.80;100886.94;1694388;80;21326;-88
2022/06/28 08:30:25;;;;;;;1.92;0.80;;;;;;;40.26;17.90;100889.67;1623793;87;21061;-88
2022/06/28 08:32:53;;;;;;;1.42;1.00;;;;;;;40.17;17.25;100886.70;1623007;87;21033;-90
2022/06/28 08:35:20;;;;;;;3.72;0.70;;;;;;;40.20;17.68;100896.58;1623373;87;21247;-89
2022/06/28 08:37:47;;;;;;;5.03;0.93;;;;;;;40.27;17.61;100899.61;1622975;87;21045;-90
2022/06/28 08:40:14;;;;;;;3.87;0.60;;;;;;;40.24;17.73;100900.12;1714553;83;21013;-90
2022/06/28 08:42:46;;;;;;;2.83;1.10;;;;;;;40.19;17.70;100899.05;1718099;82;20952;-89
2022/06/28 08:45:13;;;;;;;2.12;0.90;;;;;;;40.09;17.57;100899.13;1718313;82;21002;-90
2022/06/28 08:47:42;;;;;;;3.45;1.32;;;;;;;40.02;17.37;100899.15;1718425;82;21088;-88
2022/06/28 08:50:15;;;;;;;0.93;0.60;;;;;;;39.97;18.40;100904.94;1690686;82;21081;-89
2022/06/28 08:52:43;;;;;;;28.57;6.85;;;;;;;40.01;18.51;100892.84;1718580;82;20948;-87
2022/06/28 08:55:09;;;;;;;2.25;1.10;;;;;;;40.13;19.03;100892.48;1718290;83;20927;-87
2022/06/28 08:57:37;;;;;;;1.30;0.90;;;;;;;40.17;18.34;100893.57;1690494;83;20844;-88
2022/06/28 09:00:07;;;;;;;3.72;0.80;;;;;;;40.17;18.32;100891.63;1690625;83;21241;-86
2022/06/28 09:02:34;;;;;;;4.85;0.70;;;;;;;40.19;18.02;100891.36;1718451;83;20970;-87
2022/06/28 09:05:01;;;;;;;5.95;1.17;;;;;;;40.20;17.95;100888.90;1690048;83;21008;-88
2022/06/28 09:07:29;;;;;;;2.50;0.70;;;;;;;40.22;18.15;100891.34;1717126;83;20903;-88
2022/06/28 09:09:57;;;;;;;11.28;8.80;;;;;;;40.27;18.38;100889.98;1716931;83;20966;-89
2022/06/28 09:12:26;;;;;;;5.65;3.95;;;;;;;40.25;17.98;100890.23;1716882;83;21246;-89
2022/06/28 09:14:53;;;;;;;1.00;0.90;;;;;;;40.30;18.12;100888.03;1717021;83;20927;-88
2022/06/28 09:17:26;;;;;;;2.62;0.90;;;;;;;40.43;18.12;100879.70;1717625;82;20935;-89
2022/06/28 09:19:58;;;;;;;2.40;0.80;;;;;;;40.53;17.89;100872.20;1716841;83;20943;-87
2022/06/28 09:22:39;;;;;;;;;;;;;;;40.62;17.67;100869.62;1720409;82;21456;-88
2022/06/28 09:25:13;;;;;;;2.80;0.68;;;;;;;40.57;17.16;100869.11;1717016;83;21241;-89
2022/06/28 09:27:42;;;;;;;0.68;0.47;;;;;;;40.46;17.43;100871.69;1713653;81;20892;-88
2022/06/28 09:30:12;;;;;;;2.52;0.85;;;;;;;40.37;17.30;100870.09;1710397;82;20861;-90
2022/06/28 09:32:40;;;;;;;3.20;1.67;;;;;;;40.42;18.01;100875.29;1710289;82;20932;-88
2022/06/28 09:35:10;;;;;;;1.52;0.80;;;;;;;40.48;18.26;100868.66;1711170;83;20940;-87
2022/06/28 09:37:47;;;;;;;3.30;2.87;;;;;;;40.55;18.46;100871.33;1710421;84;21202;-86
2022/06/28 09:40:20;;;;;;;18.35;16.32;;;;;;;40.57;18.00;100869.68;1709683;83;20983;-88
2022/06/28 09:43:11;;;;;;;1.67;1.02;;;;;;;40.48;17.97;100859.84;1709271;84;21405;-88
2022/06/28 09:45:39;;;;;;;8.03;7.15;;;;;;;40.42;18.37;100867.05;1709178;84;20936;-88
2022/06/28 09:48:12;;;;;;;3.10;0.90;;;;;;;40.34;18.20;100853.38;1709398;83;20944;-89
2022/06/28 09:50:38;;;;;;;7.45;4.47;;;;;;;40.19;18.45;100851.52;1709158;84;21407;-88
2022/06/28 09:53:06;;;;;;;4.15;0.88;;;;;;;39.99;18.27;100845.04;1709442;83;20988;-88
2022/06/28 09:55:33;;;;;;;0.78;0.50;;;;;;;39.85;18.42;100845.41;1709527;84;20871;-86
2022/06/28 09:58:01;;;;;;;2.98;0.75;;;;;;;39.85;18.72;100839.91;1709304;84;20983;-88
2022/06/28 10:00:29;;;;;;;4.15;1.95;;;;;;;39.86;18.92;100831.93;1709667;83;20948;-88
2022/06/28 10:02:57;;;;;;;1.32;0.95;;;;;;;39.94;18.95;100830.53;1709188;84;21259;-87
2022/06/28 10:05:24;;;;;;;3.30;0.98;;;;;;;40.06;18.56;100832.36;1708971;84;21387;-89
2022/06/28 10:07:51;;;;;;;2.47;1.42;;;;;;;40.02;18.50;100828.53;1709173;84;20852;-86
2022/06/28 10:10:22;;;;;;;11.20;8.85;;;;;;;40.05;18.44;100832.66;1709154;83;20917;-89
2022/06/28 10:15:40;;;;;;;5.03;4.45;;;;;;;39.95;18.40;100828.84;1709315;84;21162;-86
2022/06/28 10:18:20;;;;;;;11.43;10.25;;;;;;;39.84;18.21;100828.64;1709216;82;21378;-89
2022/06/28 10:20:47;;;;;;;2.12;1.57;;;;;;;39.76;18.35;100830.04;1709231;82;20892;-85
2022/06/28 10:23:25;;;;;;;3.12;1.90;;;;;;;39.73;18.29;100830.62;1709470;83;20983;-87
2022/06/28 10:26:19;;;;;;;2.50;1.37;;;;;;;39.78;18.60;100831.14;1709401;82;20892;-86
2022/06/28 10:29:07;;;;;;;10.43;4.08;;;;;;;39.76;18.45;100819.61;1710317;82;21205;-88
2022/06/28 10:31:44;;;;;;;2.50;1.17;;;;;;;39.77;18.97;100816.56;1709205;83;21019;-90
2022/06/28 10:34:17;;;;;;;2.70;0.53;;;;;;;39.90;18.59;100819.28;1706949;82;20857;-88
2022/06/28 10:36:56;;;;;;;4.12;1.12;;;;;;;40.01;18.44;100824.72;1708533;84;21346;-88
2022/06/28 10:39:29;;;;;;;2.33;0.60;;;;;;;40.04;18.11;100822.77;1709486;82;20892;-88
2022/06/28 10:42:02;;;;;;;3.12;0.60;;;;;;;39.88;17.83;100811.88;1709788;84;21144;-88
2022/06/28 10:44:37;;;;;;;6.22;0.68;;;;;;;39.89;18.41;100816.27;1709891;84;20905;-88
2022/06/28 10:47:10;;;;;;;0.95;0.50;;;;;;;40.08;18.35;100815.03;1709948;83;20983;-89
2022/06/28 10:49:48;;;;;;;0.72;0.55;;;;;;;40.14;18.20;100815.84;1709929;84;20940;-89
2022/06/28 10:52:21;;;;;;;2.70;0.70;;;;;;;40.09;17.99;100812.57;1709491;82;21518;-86
2022/06/28 10:54:58;;;;;;;3.70;0.50;;;;;;;39.98;18.57;100806.88;1709815;83;21315;-85
2022/06/28 10:57:29;;;;;;;1.98;0.80;;;;;;;39.93;18.90;100806.89;1709838;83;20921;-87
2022/06/28 10:59:59;;;;;;;1.32;0.65;;;;;;;39.95;19.08;100809.63;1683915;84;20971;-87
2022/06/28 11:02:48;;;;;;;0.72;0.40;;;;;;;39.98;19.52;100811.81;1709647;84;20952;-88
2022/06/28 11:05:15;;;;;;;3.85;0.68;;;;;;;39.95;19.02;100795.89;1708099;84;20992;-87
2022/06/28 11:07:41;;;;;;;2.20;0.78;;;;;;;39.96;19.09;100800.85;1709881;82;21124;-88
2022/06/28 11:10:14;;;;;;;0.75;0.72;;;;;;;39.89;19.30;100794.83;1709802;83;20940;-87
2022/06/28 11:12:41;;;;;;;1.00;0.95;;;;;;;39.83;19.32;100786.37;1684807;82;20876;-87
2022/06/28 11:15:39;;;;;;;1.60;1.50;;;;;;;39.76;19.34;100786.66;1711556;82;20924;-87
2022/06/28 11:18:14;;;;;;;4.85;1.10;;;;;;;39.67;19.81;100773.27;1710805;82;21003;-88
2022/06/28 11:20:40;;;;;;;2.25;0.80;;;;;;;39.56;20.34;100784.29;1711620;82;21158;-88
2022/06/28 11:23:07;;;;;;;2.17;0.93;;;;;;;39.44;20.50;100775.55;1711605;82;20955;-88
2022/06/28 11:28:21;;;;;;;2.72;1.05;;;;;;;39.08;20.93;100774.30;1689948;82;20936;-86
2022/06/28 11:30:48;;;;;;;5.78;1.10;;;;;;;38.87;21.58;100772.14;1711468;82;20975;-89
2022/06/28 11:33:16;;;;;;;1.45;1.00;;;;;;;38.68;21.70;100774.64;1685640;83;21117;-88
2022/06/28 11:35:43;;;;;;;5.50;0.88;;;;;;;38.34;21.85;100763.41;1711280;82;20960;-88
2022/06/28 11:38:11;;;;;;;2.40;0.90;;;;;;;38.05;22.45;100768.61;1711236;82;21190;-89
2022/06/28 11:40:51;;;;;;;5.00;2.10;;;;;;;37.80;22.97;100764.70;1711444;81;20952;-88
2022/06/28 11:43:20;;;;;;;4.70;1.22;;;;;;;37.46;23.49;100759.63;1711606;82;20952;-88
2022/06/28 11:45:50;;;;;;;4.03;1.47;;;;;;;37.11;23.78;100757.59;1711625;82;21221;-87
2022/06/28 11:48:21;;;;;;;1.72;1.30;;;;;;;36.80;24.35;100764.22;1711600;82;21110;-88
2022/06/28 11:50:51;;;;;;;3.10;1.45;;;;;;;36.53;24.57;100760.19;1710543;82;20884;-87